sensor_id;sensor_type;location;lat;lon;timestamp;temperature;humidity
28773;DHT22;15925;51.222;5.678;2023-03-23T00:02:24;12.60;99.90
28773;DHT22;15925;51.222;5.678;2023-03-23T00:04:49;12.60;99.90
28773;DHT22;15925;51.222;5.678;2023-03-23T00:07:16;12.60;99.90
28773;DHT22;15925;51.222;5.678;2023-03-23T00:09:50;12.60;99.90
28773;DHT22;15925;51.222;5.678;2023-03-23T00:12:27;12.60;99.90
28773;DHT22;15925;51.222;5.678;2023-03-23T00:15:04;12.60;99.90
28773;DHT22;15925;51.222;5.678;2023-03-23T00:17:32;12.60;99.90
28773;DHT22;15925;51.222;5.678;2023-03-23T00:20:01;12.60;99.90
28773;DHT22;15925;51.222;5.678;2023-03-23T00:22:30;12.60;99.90
28773;DHT22;15925;51.222;5.678;2023-03-23T00:24:56;12.60;99.90
28773;DHT22;15925;51.222;5.678;2023-03-23T00:27:23;12.60;99.90
28773;DHT22;15925;51.222;5.678;2023-03-23T00:29:50;12.60;99.90
28773;DHT22;15925;51.222;5.678;2023-03-23T00:32:21;12.60;99.90
28773;DHT22;15925;51.222;5.678;2023-03-23T00:34:57;12.60;99.90
28773;DHT22;15925;51.222;5.678;2023-03-23T00:37:26;12.60;99.90
28773;DHT22;15925;51.222;5.678;2023-03-23T00:39:52;12.60;99.90
28773;DHT22;15925;51.222;5.678;2023-03-23T00:42:23;12.60;99.90
28773;DHT22;15925;51.222;5.678;2023-03-23T00:44:49;12.60;99.90
28773;DHT22;15925;51.222;5.678;2023-03-23T00:47:16;12.60;99.90
28773;DHT22;15925;51.222;5.678;2023-03-23T00:49:43;12.60;99.90
28773;DHT22;15925;51.222;5.678;2023-03-23T00:52:09;12.60;99.90
28773;DHT22;15925;51.222;5.678;2023-03-23T00:54:35;12.60;99.90
28773;DHT22;15925;51.222;5.678;2023-03-23T00:57:04;12.60;99.90
28773;DHT22;15925;51.222;5.678;2023-03-23T00:59:48;12.60;99.90
28773;DHT22;15925;51.222;5.678;2023-03-23T01:02:14;12.60;99.90
28773;DHT22;15925;51.222;5.678;2023-03-23T01:04:40;12.70;99.90
28773;DHT22;15925;51.222;5.678;2023-03-23T01:07:10;12.70;99.90
28773;DHT22;15925;51.222;5.678;2023-03-23T01:09:39;12.70;99.90
28773;DHT22;15925;51.222;5.678;2023-03-23T01:12:05;12.70;99.90
28773;DHT22;15925;51.222;5.678;2023-03-23T01:14:32;12.70;99.90
28773;DHT22;15925;51.222;5.678;2023-03-23T01:16:57;12.70;99.90
28773;DHT22;15925;51.222;5.678;2023-03-23T01:19:23;12.70;99.90
28773;DHT22;15925;51.222;5.678;2023-03-23T01:21:49;12.70;99.90
28773;DHT22;15925;51.222;5.678;2023-03-23T01:24:15;12.70;99.90
28773;DHT22;15925;51.222;5.678;2023-03-23T01:26:41;12.70;99.90
28773;DHT22;15925;51.222;5.678;2023-03-23T01:29:06;12.70;99.90
28773;DHT22;15925;51.222;5.678;2023-03-23T01:31:34;12.70;99.90
28773;DHT22;15925;51.222;5.678;2023-03-23T01:34:02;12.70;99.90
28773;DHT22;15925;51.222;5.678;2023-03-23T01:36:30;12.70;99.90
28773;DHT22;15925;51.222;5.678;2023-03-23T01:39:00;12.70;99.90
28773;DHT22;15925;51.222;5.678;2023-03-23T01:41:29;12.70;99.90
28773;DHT22;15925;51.222;5.678;2023-03-23T01:46:26;12.80;99.90
28773;DHT22;15925;51.222;5.678;2023-03-23T01:48:52;12.80;99.90
28773;DHT22;15925;51.222;5.678;2023-03-23T01:51:20;12.80;99.90
28773;DHT22;15925;51.222;5.678;2023-03-23T01:53:54;12.70;99.90
28773;DHT22;15925;51.222;5.678;2023-03-23T01:56:24;12.70;99.90
28773;DHT22;15925;51.222;5.678;2023-03-23T01:58:53;12.70;99.90
28773;DHT22;15925;51.222;5.678;2023-03-23T02:01:21;12.70;99.90
28773;DHT22;15925;51.222;5.678;2023-03-23T02:03:53;12.70;99.90
28773;DHT22;15925;51.222;5.678;2023-03-23T02:06:19;12.70;99.90
28773;DHT22;15925;51.222;5.678;2023-03-23T02:09:15;12.70;99.90
28773;DHT22;15925;51.222;5.678;2023-03-23T02:11:45;12.80;99.90
28773;DHT22;15925;51.222;5.678;2023-03-23T02:14:12;12.70;99.90
28773;DHT22;15925;51.222;5.678;2023-03-23T02:16:52;12.70;99.90
28773;DHT22;15925;51.222;5.678;2023-03-23T02:24:53;12.80;99.90
28773;DHT22;15925;51.222;5.678;2023-03-23T02:27:45;12.80;99.90
28773;DHT22;15925;51.222;5.678;2023-03-23T02:35:54;12.70;99.90
28773;DHT22;15925;51.222;5.678;2023-03-23T02:38:28;12.70;99.90
28773;DHT22;15925;51.222;5.678;2023-03-23T02:40:56;12.70;99.90
28773;DHT22;15925;51.222;5.678;2023-03-23T02:43:27;12.70;99.90
28773;DHT22;15925;51.222;5.678;2023-03-23T02:45:54;12.70;99.90
28773;DHT22;15925;51.222;5.678;2023-03-23T02:48:24;12.80;99.90
28773;DHT22;15925;51.222;5.678;2023-03-23T02:50:54;12.70;99.90
28773;DHT22;15925;51.222;5.678;2023-03-23T02:53:24;12.70;99.90
28773;DHT22;15925;51.222;5.678;2023-03-23T02:55:53;12.70;99.90
28773;DHT22;15925;51.222;5.678;2023-03-23T02:58:23;12.70;99.90
28773;DHT22;15925;51.222;5.678;2023-03-23T03:00:51;12.70;99.90
28773;DHT22;15925;51.222;5.678;2023-03-23T03:03:22;12.70;99.90
28773;DHT22;15925;51.222;5.678;2023-03-23T03:11:18;12.70;99.90
28773;DHT22;15925;51.222;5.678;2023-03-23T03:16:44;12.70;99.90
28773;DHT22;15925;51.222;5.678;2023-03-23T03:21:42;12.70;99.90
28773;DHT22;15925;51.222;5.678;2023-03-23T03:24:12;12.70;99.90
28773;DHT22;15925;51.222;5.678;2023-03-23T03:26:43;12.70;99.90
28773;DHT22;15925;51.222;5.678;2023-03-23T03:29:40;12.70;99.90
28773;DHT22;15925;51.222;5.678;2023-03-23T03:32:12;12.70;99.90
28773;DHT22;15925;51.222;5.678;2023-03-23T03:34:40;12.70;99.90
28773;DHT22;15925;51.222;5.678;2023-03-23T03:37:07;12.70;99.90
28773;DHT22;15925;51.222;5.678;2023-03-23T03:39:38;12.70;99.90
28773;DHT22;15925;51.222;5.678;2023-03-23T03:42:04;12.70;99.90
28773;DHT22;15925;51.222;5.678;2023-03-23T03:44:32;12.60;99.90
28773;DHT22;15925;51.222;5.678;2023-03-23T03:46:58;12.60;99.90
28773;DHT22;15925;51.222;5.678;2023-03-23T03:49:24;12.70;99.90
28773;DHT22;15925;51.222;5.678;2023-03-23T03:51:53;12.70;99.90
28773;DHT22;15925;51.222;5.678;2023-03-23T03:54:23;12.70;99.90
28773;DHT22;15925;51.222;5.678;2023-03-23T03:56:49;12.70;99.90
28773;DHT22;15925;51.222;5.678;2023-03-23T03:59:35;12.70;99.90
28773;DHT22;15925;51.222;5.678;2023-03-23T04:02:17;12.70;99.90
28773;DHT22;15925;51.222;5.678;2023-03-23T04:04:47;12.70;99.90
28773;DHT22;15925;51.222;5.678;2023-03-23T04:07:13;12.70;99.90
28773;DHT22;15925;51.222;5.678;2023-03-23T04:09:40;12.70;99.90
28773;DHT22;15925;51.222;5.678;2023-03-23T04:12:09;12.70;99.90
28773;DHT22;15925;51.222;5.678;2023-03-23T04:14:55;12.70;99.90
28773;DHT22;15925;51.222;5.678;2023-03-23T04:17:23;12.70;99.90
28773;DHT22;15925;51.222;5.678;2023-03-23T04:19:52;12.70;99.90
28773;DHT22;15925;51.222;5.678;2023-03-23T04:22:18;12.70;99.90
28773;DHT22;15925;51.222;5.678;2023-03-23T04:24:44;12.70;99.90
28773;DHT22;15925;51.222;5.678;2023-03-23T04:27:15;12.70;99.90
28773;DHT22;15925;51.222;5.678;2023-03-23T04:29:42;12.70;99.90
28773;DHT22;15925;51.222;5.678;2023-03-23T04:32:35;12.70;99.90
28773;DHT22;15925;51.222;5.678;2023-03-23T04:35:01;12.70;99.90
28773;DHT22;15925;51.222;5.678;2023-03-23T04:37:36;12.60;99.90
28773;DHT22;15925;51.222;5.678;2023-03-23T04:40:04;12.60;99.90
28773;DHT22;15925;51.222;5.678;2023-03-23T04:42:34;12.60;99.90
28773;DHT22;15925;51.222;5.678;2023-03-23T04:45:18;12.70;99.90
28773;DHT22;15925;51.222;5.678;2023-03-23T04:47:51;12.70;99.90
28773;DHT22;15925;51.222;5.678;2023-03-23T04:50:28;12.70;99.90
28773;DHT22;15925;51.222;5.678;2023-03-23T04:53:01;12.70;99.90
28773;DHT22;15925;51.222;5.678;2023-03-23T04:55:32;12.70;99.90
28773;DHT22;15925;51.222;5.678;2023-03-23T04:58:06;12.70;99.90
28773;DHT22;15925;51.222;5.678;2023-03-23T05:00:41;12.60;99.90
28773;DHT22;15925;51.222;5.678;2023-03-23T05:03:10;12.70;99.90
28773;DHT22;15925;51.222;5.678;2023-03-23T05:05:36;12.70;99.90
28773;DHT22;15925;51.222;5.678;2023-03-23T05:08:06;12.70;99.90
28773;DHT22;15925;51.222;5.678;2023-03-23T05:10:36;12.70;99.90
28773;DHT22;15925;51.222;5.678;2023-03-23T05:13:07;12.70;99.90
28773;DHT22;15925;51.222;5.678;2023-03-23T05:15:33;12.70;99.90
28773;DHT22;15925;51.222;5.678;2023-03-23T05:18:00;12.70;99.90
28773;DHT22;15925;51.222;5.678;2023-03-23T05:20:26;12.60;99.90
28773;DHT22;15925;51.222;5.678;2023-03-23T05:22:58;12.60;99.90
28773;DHT22;15925;51.222;5.678;2023-03-23T05:25:29;12.60;99.90
28773;DHT22;15925;51.222;5.678;2023-03-23T05:28:03;12.60;99.90
28773;DHT22;15925;51.222;5.678;2023-03-23T05:30:48;12.60;99.90
28773;DHT22;15925;51.222;5.678;2023-03-23T05:33:15;12.60;99.90
28773;DHT22;15925;51.222;5.678;2023-03-23T05:35:52;12.70;99.90
28773;DHT22;15925;51.222;5.678;2023-03-23T05:38:24;12.60;99.90
28773;DHT22;15925;51.222;5.678;2023-03-23T05:40:51;12.70;99.90
28773;DHT22;15925;51.222;5.678;2023-03-23T05:43:24;12.60;99.90
28773;DHT22;15925;51.222;5.678;2023-03-23T05:46:12;12.60;99.90
28773;DHT22;15925;51.222;5.678;2023-03-23T05:48:39;12.60;99.90
28773;DHT22;15925;51.222;5.678;2023-03-23T05:51:10;12.60;99.90
28773;DHT22;15925;51.222;5.678;2023-03-23T05:53:42;12.60;99.90
28773;DHT22;15925;51.222;5.678;2023-03-23T05:56:10;12.60;99.90
28773;DHT22;15925;51.222;5.678;2023-03-23T05:58:50;12.60;99.90
28773;DHT22;15925;51.222;5.678;2023-03-23T06:01:17;12.60;99.90
28773;DHT22;15925;51.222;5.678;2023-03-23T06:03:43;12.60;99.90
28773;DHT22;15925;51.222;5.678;2023-03-23T06:06:21;12.60;99.90
28773;DHT22;15925;51.222;5.678;2023-03-23T06:08:52;12.60;99.90
28773;DHT22;15925;51.222;5.678;2023-03-23T06:11:26;12.60;99.90
28773;DHT22;15925;51.222;5.678;2023-03-23T06:14:10;12.60;99.90
28773;DHT22;15925;51.222;5.678;2023-03-23T06:16:38;12.50;99.90
28773;DHT22;15925;51.222;5.678;2023-03-23T06:19:07;12.60;99.90
28773;DHT22;15925;51.222;5.678;2023-03-23T06:21:37;12.50;99.90
28773;DHT22;15925;51.222;5.678;2023-03-23T06:24:13;12.60;99.90
28773;DHT22;15925;51.222;5.678;2023-03-23T06:26:39;12.60;99.90
28773;DHT22;15925;51.222;5.678;2023-03-23T06:29:11;12.60;99.90
28773;DHT22;15925;51.222;5.678;2023-03-23T06:31:44;12.60;99.90
28773;DHT22;15925;51.222;5.678;2023-03-23T06:34:10;12.60;99.90
28773;DHT22;15925;51.222;5.678;2023-03-23T06:36:56;12.60;99.90
28773;DHT22;15925;51.222;5.678;2023-03-23T06:39:40;12.60;99.90
28773;DHT22;15925;51.222;5.678;2023-03-23T06:42:30;12.60;99.90
28773;DHT22;15925;51.222;5.678;2023-03-23T06:45:19;12.60;99.90
28773;DHT22;15925;51.222;5.678;2023-03-23T06:47:48;12.60;99.90
28773;DHT22;15925;51.222;5.678;2023-03-23T06:50:15;12.70;99.90
28773;DHT22;15925;51.222;5.678;2023-03-23T06:52:46;12.60;99.90
28773;DHT22;15925;51.222;5.678;2023-03-23T06:55:12;12.60;99.90
28773;DHT22;15925;51.222;5.678;2023-03-23T06:57:39;12.70;99.90
28773;DHT22;15925;51.222;5.678;2023-03-23T07:00:05;12.70;99.90
28773;DHT22;15925;51.222;5.678;2023-03-23T07:02:33;12.70;99.90
28773;DHT22;15925;51.222;5.678;2023-03-23T07:05:00;12.70;99.90
28773;DHT22;15925;51.222;5.678;2023-03-23T07:07:26;12.70;99.90
28773;DHT22;15925;51.222;5.678;2023-03-23T07:10:10;12.70;99.90
28773;DHT22;15925;51.222;5.678;2023-03-23T07:12:37;12.70;99.90
28773;DHT22;15925;51.222;5.678;2023-03-23T07:15:06;12.70;99.90
28773;DHT22;15925;51.222;5.678;2023-03-23T07:17:35;12.70;99.90
28773;DHT22;15925;51.222;5.678;2023-03-23T07:20:10;12.80;99.90
28773;DHT22;15925;51.222;5.678;2023-03-23T07:22:36;12.80;99.90
28773;DHT22;15925;51.222;5.678;2023-03-23T07:25:11;12.80;99.90
28773;DHT22;15925;51.222;5.678;2023-03-23T07:27:57;12.80;99.90
28773;DHT22;15925;51.222;5.678;2023-03-23T07:30:23;12.80;99.90
28773;DHT22;15925;51.222;5.678;2023-03-23T07:32:49;12.80;99.90
28773;DHT22;15925;51.222;5.678;2023-03-23T07:35:15;12.80;99.90
28773;DHT22;15925;51.222;5.678;2023-03-23T07:37:56;12.80;99.90
28773;DHT22;15925;51.222;5.678;2023-03-23T07:40:22;12.80;99.90
28773;DHT22;15925;51.222;5.678;2023-03-23T07:42:53;12.80;99.90
28773;DHT22;15925;51.222;5.678;2023-03-23T07:45:29;12.90;99.90
28773;DHT22;15925;51.222;5.678;2023-03-23T07:47:56;12.90;99.90
28773;DHT22;15925;51.222;5.678;2023-03-23T07:50:23;12.90;99.90
28773;DHT22;15925;51.222;5.678;2023-03-23T07:52:53;12.90;99.90
28773;DHT22;15925;51.222;5.678;2023-03-23T07:55:19;13.00;99.90
28773;DHT22;15925;51.222;5.678;2023-03-23T07:58:08;13.10;99.90
28773;DHT22;15925;51.222;5.678;2023-03-23T08:00:35;13.10;99.90
28773;DHT22;15925;51.222;5.678;2023-03-23T08:03:04;13.10;99.90
28773;DHT22;15925;51.222;5.678;2023-03-23T08:05:43;13.10;99.90
28773;DHT22;15925;51.222;5.678;2023-03-23T08:08:40;13.10;99.90
28773;DHT22;15925;51.222;5.678;2023-03-23T08:11:26;13.10;99.90
28773;DHT22;15925;51.222;5.678;2023-03-23T08:14:12;13.10;99.90
28773;DHT22;15925;51.222;5.678;2023-03-23T08:17:04;13.10;99.90
28773;DHT22;15925;51.222;5.678;2023-03-23T08:19:56;13.00;99.90
28773;DHT22;15925;51.222;5.678;2023-03-23T08:22:45;12.70;99.90
28773;DHT22;15925;51.222;5.678;2023-03-23T08:25:43;12.30;99.90
28773;DHT22;15925;51.222;5.678;2023-03-23T08:28:22;12.00;99.90
28773;DHT22;15925;51.222;5.678;2023-03-23T08:30:57;11.90;99.90
28773;DHT22;15925;51.222;5.678;2023-03-23T08:33:40;11.80;99.90
28773;DHT22;15925;51.222;5.678;2023-03-23T08:36:27;11.60;99.90
28773;DHT22;15925;51.222;5.678;2023-03-23T08:39:05;11.40;99.90
28773;DHT22;15925;51.222;5.678;2023-03-23T08:41:51;11.40;99.90
28773;DHT22;15925;51.222;5.678;2023-03-23T08:44:37;11.20;99.90
28773;DHT22;15925;51.222;5.678;2023-03-23T08:47:36;11.30;99.90
28773;DHT22;15925;51.222;5.678;2023-03-23T08:50:15;11.30;99.90
28773;DHT22;15925;51.222;5.678;2023-03-23T08:53:04;11.30;99.90
28773;DHT22;15925;51.222;5.678;2023-03-23T08:55:53;11.20;99.90
28773;DHT22;15925;51.222;5.678;2023-03-23T08:58:34;11.20;99.90
28773;DHT22;15925;51.222;5.678;2023-03-23T09:01:16;11.10;99.90
28773;DHT22;15925;51.222;5.678;2023-03-23T09:03:50;11.20;99.90
28773;DHT22;15925;51.222;5.678;2023-03-23T09:06:52;11.20;99.90
28773;DHT22;15925;51.222;5.678;2023-03-23T09:09:18;11.10;99.90
28773;DHT22;15925;51.222;5.678;2023-03-23T09:11:44;11.20;99.90
28773;DHT22;15925;51.222;5.678;2023-03-23T09:14:11;11.10;99.90
28773;DHT22;15925;51.222;5.678;2023-03-23T09:16:36;11.20;99.90
28773;DHT22;15925;51.222;5.678;2023-03-23T09:19:02;11.20;99.90
28773;DHT22;15925;51.222;5.678;2023-03-23T09:21:29;11.20;99.90
28773;DHT22;15925;51.222;5.678;2023-03-23T09:23:55;11.20;99.90
28773;DHT22;15925;51.222;5.678;2023-03-23T09:26:25;11.20;99.90
28773;DHT22;15925;51.222;5.678;2023-03-23T09:28:51;11.30;99.90
28773;DHT22;15925;51.222;5.678;2023-03-23T09:31:17;11.30;99.90
28773;DHT22;15925;51.222;5.678;2023-03-23T09:33:46;11.40;99.90
28773;DHT22;15925;51.222;5.678;2023-03-23T09:36:12;11.40;99.90
28773;DHT22;15925;51.222;5.678;2023-03-23T09:38:40;11.50;99.90
28773;DHT22;15925;51.222;5.678;2023-03-23T09:41:12;11.50;99.90
28773;DHT22;15925;51.222;5.678;2023-03-23T09:48:58;11.60;99.90
28773;DHT22;15925;51.222;5.678;2023-03-23T09:54:43;11.80;99.90
28773;DHT22;15925;51.222;5.678;2023-03-23T09:57:32;11.80;99.90
28773;DHT22;15925;51.222;5.678;2023-03-23T10:00:14;11.90;99.90
28773;DHT22;15925;51.222;5.678;2023-03-23T10:02:55;12.00;99.90
28773;DHT22;15925;51.222;5.678;2023-03-23T10:08:02;12.10;99.90
28773;DHT22;15925;51.222;5.678;2023-03-23T10:16:18;12.10;99.90
28773;DHT22;15925;51.222;5.678;2023-03-23T10:21:29;12.20;99.90
28773;DHT22;15925;51.222;5.678;2023-03-23T10:23:59;12.20;99.90
28773;DHT22;15925;51.222;5.678;2023-03-23T10:32:02;12.30;99.90
28773;DHT22;15925;51.222;5.678;2023-03-23T10:34:35;12.20;99.90
28773;DHT22;15925;51.222;5.678;2023-03-23T10:37:26;12.20;99.90
28773;DHT22;15925;51.222;5.678;2023-03-23T10:39:55;12.30;99.90
28773;DHT22;15925;51.222;5.678;2023-03-23T10:42:31;12.40;99.90
28773;DHT22;15925;51.222;5.678;2023-03-23T10:45:09;12.40;99.90
28773;DHT22;15925;51.222;5.678;2023-03-23T10:47:38;12.40;99.90
28773;DHT22;15925;51.222;5.678;2023-03-23T10:50:06;12.50;99.90
28773;DHT22;15925;51.222;5.678;2023-03-23T10:52:41;12.50;99.90
28773;DHT22;15925;51.222;5.678;2023-03-23T10:55:14;12.60;99.90
28773;DHT22;15925;51.222;5.678;2023-03-23T10:57:43;12.70;99.90
28773;DHT22;15925;51.222;5.678;2023-03-23T11:00:23;12.70;99.90
28773;DHT22;15925;51.222;5.678;2023-03-23T11:03:01;12.80;99.90
28773;DHT22;15925;51.222;5.678;2023-03-23T11:05:48;12.80;99.90
28773;DHT22;15925;51.222;5.678;2023-03-23T11:08:27;13.00;99.90
28773;DHT22;15925;51.222;5.678;2023-03-23T11:11:10;13.10;99.90
28773;DHT22;15925;51.222;5.678;2023-03-23T11:13:41;13.20;99.90
28773;DHT22;15925;51.222;5.678;2023-03-23T11:16:09;13.30;99.90
28773;DHT22;15925;51.222;5.678;2023-03-23T11:18:41;13.30;99.90
28773;DHT22;15925;51.222;5.678;2023-03-23T11:21:12;13.40;99.90
28773;DHT22;15925;51.222;5.678;2023-03-23T11:23:46;13.40;99.90
28773;DHT22;15925;51.222;5.678;2023-03-23T11:26:28;13.40;99.90
28773;DHT22;15925;51.222;5.678;2023-03-23T11:29:15;13.40;99.90
28773;DHT22;15925;51.222;5.678;2023-03-23T11:31:46;13.40;99.90
28773;DHT22;15925;51.222;5.678;2023-03-23T11:34:33;13.40;99.90
28773;DHT22;15925;51.222;5.678;2023-03-23T11:37:13;13.40;99.90
28773;DHT22;15925;51.222;5.678;2023-03-23T11:39:55;13.40;99.90
28773;DHT22;15925;51.222;5.678;2023-03-23T11:42:26;13.40;99.90
28773;DHT22;15925;51.222;5.678;2023-03-23T11:45:16;13.40;99.90
28773;DHT22;15925;51.222;5.678;2023-03-23T11:47:56;13.50;99.90
28773;DHT22;15925;51.222;5.678;2023-03-23T11:50:30;13.50;99.90
28773;DHT22;15925;51.222;5.678;2023-03-23T11:53:22;13.60;99.90
28773;DHT22;15925;51.222;5.678;2023-03-23T11:58:18;13.70;99.90
28773;DHT22;15925;51.222;5.678;2023-03-23T12:00:55;13.80;99.90
28773;DHT22;15925;51.222;5.678;2023-03-23T12:06:05;13.90;99.90
28773;DHT22;15925;51.222;5.678;2023-03-23T12:17:02;14.40;99.90
28773;DHT22;15925;51.222;5.678;2023-03-23T12:23:14;14.50;99.90
28773;DHT22;15925;51.222;5.678;2023-03-23T12:26:04;14.70;99.90
28773;DHT22;15925;51.222;5.678;2023-03-23T12:33:55;15.00;99.90
28773;DHT22;15925;51.222;5.678;2023-03-23T12:36:37;15.10;99.90
28773;DHT22;15925;51.222;5.678;2023-03-23T12:42:36;15.10;99.90
28773;DHT22;15925;51.222;5.678;2023-03-23T12:48:11;15.30;99.90
28773;DHT22;15925;51.222;5.678;2023-03-23T12:53:27;15.20;99.90
28773;DHT22;15925;51.222;5.678;2023-03-23T12:56:20;15.30;99.90
28773;DHT22;15925;51.222;5.678;2023-03-23T12:58:50;15.30;99.90
28773;DHT22;15925;51.222;5.678;2023-03-23T13:01:34;15.30;99.90
28773;DHT22;15925;51.222;5.678;2023-03-23T13:04:08;15.30;99.90
28773;DHT22;15925;51.222;5.678;2023-03-23T13:06:42;15.30;99.90
28773;DHT22;15925;51.222;5.678;2023-03-23T13:12:50;15.20;99.90
28773;DHT22;15925;51.222;5.678;2023-03-23T13:15:46;15.20;99.90
28773;DHT22;15925;51.222;5.678;2023-03-23T13:18:30;15.20;99.90
28773;DHT22;15925;51.222;5.678;2023-03-23T13:23:40;15.30;99.90
28773;DHT22;15925;51.222;5.678;2023-03-23T13:26:13;15.40;99.90
28773;DHT22;15925;51.222;5.678;2023-03-23T13:31:21;15.60;99.90
28773;DHT22;15925;51.222;5.678;2023-03-23T13:33:52;15.50;99.90
28773;DHT22;15925;51.222;5.678;2023-03-23T13:36:37;15.50;99.90
28773;DHT22;15925;51.222;5.678;2023-03-23T13:39:06;15.50;99.90
28773;DHT22;15925;51.222;5.678;2023-03-23T13:41:44;15.60;99.90
28773;DHT22;15925;51.222;5.678;2023-03-23T13:44:21;15.60;99.90
28773;DHT22;15925;51.222;5.678;2023-03-23T13:47:06;15.50;99.90
28773;DHT22;15925;51.222;5.678;2023-03-23T13:49:32;15.50;99.90
28773;DHT22;15925;51.222;5.678;2023-03-23T13:52:15;15.60;99.90
28773;DHT22;15925;51.222;5.678;2023-03-23T13:54:45;15.70;99.90
28773;DHT22;15925;51.222;5.678;2023-03-23T13:57:34;15.70;99.90
28773;DHT22;15925;51.222;5.678;2023-03-23T14:03:13;15.60;99.90
28773;DHT22;15925;51.222;5.678;2023-03-23T14:10:58;15.80;99.90
28773;DHT22;15925;51.222;5.678;2023-03-23T14:13:32;15.90;99.90
28773;DHT22;15925;51.222;5.678;2023-03-23T14:16:04;15.90;99.90
28773;DHT22;15925;51.222;5.678;2023-03-23T14:18:38;16.00;99.90
28773;DHT22;15925;51.222;5.678;2023-03-23T14:21:05;16.00;99.90
28773;DHT22;15925;51.222;5.678;2023-03-23T14:23:34;16.10;99.90
28773;DHT22;15925;51.222;5.678;2023-03-23T14:26:04;16.00;99.90
28773;DHT22;15925;51.222;5.678;2023-03-23T14:28:38;16.10;99.90
28773;DHT22;15925;51.222;5.678;2023-03-23T14:31:05;16.10;99.90
28773;DHT22;15925;51.222;5.678;2023-03-23T14:33:31;16.10;99.90
28773;DHT22;15925;51.222;5.678;2023-03-23T14:35:59;16.10;99.90
28773;DHT22;15925;51.222;5.678;2023-03-23T14:38:26;16.20;99.90
28773;DHT22;15925;51.222;5.678;2023-03-23T14:41:01;16.30;99.90
28773;DHT22;15925;51.222;5.678;2023-03-23T14:43:27;16.30;99.90
28773;DHT22;15925;51.222;5.678;2023-03-23T14:45:58;16.30;99.90
28773;DHT22;15925;51.222;5.678;2023-03-23T14:48:25;16.30;99.90
28773;DHT22;15925;51.222;5.678;2023-03-23T14:50:56;16.30;99.90
28773;DHT22;15925;51.222;5.678;2023-03-23T14:53:25;16.40;99.90
28773;DHT22;15925;51.222;5.678;2023-03-23T14:55:53;16.40;99.90
28773;DHT22;15925;51.222;5.678;2023-03-23T14:58:22;16.40;99.90
28773;DHT22;15925;51.222;5.678;2023-03-23T15:01:05;16.50;99.90
28773;DHT22;15925;51.222;5.678;2023-03-23T15:03:53;16.40;99.90
28773;DHT22;15925;51.222;5.678;2023-03-23T15:06:21;16.30;99.90
28773;DHT22;15925;51.222;5.678;2023-03-23T15:08:53;16.30;99.90
28773;DHT22;15925;51.222;5.678;2023-03-23T15:11:34;16.30;99.90
28773;DHT22;15925;51.222;5.678;2023-03-23T15:14:28;16.20;99.90
28773;DHT22;15925;51.222;5.678;2023-03-23T15:16:56;16.20;99.90
28773;DHT22;15925;51.222;5.678;2023-03-23T15:19:35;16.10;99.90
28773;DHT22;15925;51.222;5.678;2023-03-23T15:22:30;16.10;99.90
28773;DHT22;15925;51.222;5.678;2023-03-23T15:25:11;16.00;99.90
28773;DHT22;15925;51.222;5.678;2023-03-23T15:27:42;16.00;99.90
28773;DHT22;15925;51.222;5.678;2023-03-23T15:30:16;16.00;99.90
28773;DHT22;15925;51.222;5.678;2023-03-23T15:32:45;16.00;99.90
28773;DHT22;15925;51.222;5.678;2023-03-23T15:35:14;16.00;99.90
28773;DHT22;15925;51.222;5.678;2023-03-23T15:37:59;16.00;99.90
28773;DHT22;15925;51.222;5.678;2023-03-23T15:40:27;16.00;99.90
28773;DHT22;15925;51.222;5.678;2023-03-23T15:48:33;16.10;99.90
28773;DHT22;15925;51.222;5.678;2023-03-23T15:51:02;16.10;99.90
28773;DHT22;15925;51.222;5.678;2023-03-23T15:53:34;16.10;99.90
28773;DHT22;15925;51.222;5.678;2023-03-23T15:56:03;16.20;99.90
28773;DHT22;15925;51.222;5.678;2023-03-23T15:58:30;16.20;99.90
28773;DHT22;15925;51.222;5.678;2023-03-23T16:00:56;16.10;99.90
28773;DHT22;15925;51.222;5.678;2023-03-23T16:03:32;16.10;99.90
28773;DHT22;15925;51.222;5.678;2023-03-23T16:05:59;16.00;99.90
28773;DHT22;15925;51.222;5.678;2023-03-23T16:08:28;15.90;99.90
28773;DHT22;15925;51.222;5.678;2023-03-23T16:10:54;15.90;99.90
28773;DHT22;15925;51.222;5.678;2023-03-23T16:13:19;15.80;99.90
28773;DHT22;15925;51.222;5.678;2023-03-23T16:15:46;15.70;99.90
28773;DHT22;15925;51.222;5.678;2023-03-23T16:18:19;15.70;99.90
28773;DHT22;15925;51.222;5.678;2023-03-23T16:20:47;15.60;99.90
28773;DHT22;15925;51.222;5.678;2023-03-23T16:23:13;15.60;99.90
28773;DHT22;15925;51.222;5.678;2023-03-23T16:25:39;15.50;99.90
28773;DHT22;15925;51.222;5.678;2023-03-23T16:28:07;15.50;99.90
28773;DHT22;15925;51.222;5.678;2023-03-23T16:30:34;15.60;99.90
28773;DHT22;15925;51.222;5.678;2023-03-23T16:33:02;15.50;99.90
28773;DHT22;15925;51.222;5.678;2023-03-23T16:35:28;15.60;99.90
28773;DHT22;15925;51.222;5.678;2023-03-23T16:37:56;15.60;99.90
28773;DHT22;15925;51.222;5.678;2023-03-23T16:40:23;15.60;99.90
28773;DHT22;15925;51.222;5.678;2023-03-23T16:42:49;15.60;99.90
28773;DHT22;15925;51.222;5.678;2023-03-23T16:45:16;15.60;99.90
28773;DHT22;15925;51.222;5.678;2023-03-23T16:47:42;15.70;99.90
28773;DHT22;15925;51.222;5.678;2023-03-23T16:50:10;15.60;99.90
28773;DHT22;15925;51.222;5.678;2023-03-23T16:52:38;15.70;99.90
28773;DHT22;15925;51.222;5.678;2023-03-23T16:55:05;15.60;99.90
28773;DHT22;15925;51.222;5.678;2023-03-23T16:57:32;15.50;99.90
28773;DHT22;15925;51.222;5.678;2023-03-23T17:00:00;15.50;99.90
28773;DHT22;15925;51.222;5.678;2023-03-23T17:02:26;15.50;99.90
28773;DHT22;15925;51.222;5.678;2023-03-23T17:04:51;15.40;99.90
28773;DHT22;15925;51.222;5.678;2023-03-23T17:07:17;15.40;99.90
28773;DHT22;15925;51.222;5.678;2023-03-23T17:09:43;15.40;99.90
28773;DHT22;15925;51.222;5.678;2023-03-23T17:12:09;15.40;99.90
28773;DHT22;15925;51.222;5.678;2023-03-23T17:14:35;15.40;99.90
28773;DHT22;15925;51.222;5.678;2023-03-23T17:17:01;15.40;99.90
28773;DHT22;15925;51.222;5.678;2023-03-23T17:19:27;15.40;99.90
28773;DHT22;15925;51.222;5.678;2023-03-23T17:21:53;15.30;99.90
28773;DHT22;15925;51.222;5.678;2023-03-23T17:24:19;15.30;99.90
28773;DHT22;15925;51.222;5.678;2023-03-23T17:26:46;15.30;99.90
28773;DHT22;15925;51.222;5.678;2023-03-23T17:29:12;15.30;99.90
28773;DHT22;15925;51.222;5.678;2023-03-23T17:31:37;15.30;99.90
28773;DHT22;15925;51.222;5.678;2023-03-23T17:34:03;15.30;99.90
28773;DHT22;15925;51.222;5.678;2023-03-23T17:36:29;15.30;99.90
28773;DHT22;15925;51.222;5.678;2023-03-23T17:38:55;15.20;99.90
28773;DHT22;15925;51.222;5.678;2023-03-23T17:41:21;15.20;99.90
28773;DHT22;15925;51.222;5.678;2023-03-23T17:43:47;15.10;99.90
28773;DHT22;15925;51.222;5.678;2023-03-23T17:46:12;15.10;99.90
28773;DHT22;15925;51.222;5.678;2023-03-23T17:48:38;15.00;99.90